createdAt,value
2022-09-04T00:02:38.634Z,97179.66
2022-09-04T00:05:47.017Z,97183.50
2022-09-04T00:08:31.529Z,97181.09
2022-09-04T00:11:09.472Z,97171.91
2022-09-04T00:13:39.030Z,97181.72
2022-09-04T00:16:21.611Z,97180.34
2022-09-04T00:19:03.854Z,97180.34
2022-09-04T00:21:33.256Z,97180.88
2022-09-04T00:24:02.812Z,97186.16
2022-09-04T00:26:48.876Z,97193.53
2022-09-04T00:29:30.967Z,97191.84
2022-09-04T00:32:08.224Z,97197.44
2022-09-04T00:35:04.235Z,97203.50
2022-09-04T00:37:39.912Z,97192.75
2022-09-04T00:40:16.769Z,97191.50
2022-09-04T00:43:10.872Z,97202.78
2022-09-04T00:45:41.753Z,97199.50
2022-09-04T00:48:59.089Z,97194.88
2022-09-04T00:51:30.916Z,97198.44
2022-09-04T00:54:17.741Z,97189.84
2022-09-04T00:57:27.793Z,97189.28
2022-09-04T01:04:33.907Z,97202.78
2022-09-04T01:07:31.229Z,97201.97
2022-09-04T01:10:04.615Z,97213.44
2022-09-04T01:12:57.711Z,97212.41
2022-09-04T01:15:34.826Z,97208.50
2022-09-04T01:18:34.789Z,97206.47
2022-09-04T01:21:14.507Z,97216.59
2022-09-04T01:24:03.061Z,97227.38
2022-09-04T01:27:01.385Z,97227.56
2022-09-04T01:29:59.114Z,97235.59
2022-09-04T01:32:32.927Z,97233.47
2022-09-04T01:35:26.603Z,97234.66
2022-09-04T01:38:06.564Z,97238.75
2022-09-04T01:40:38.631Z,97233.28
2022-09-04T01:43:17.648Z,97231.81
2022-09-04T01:46:27.342Z,97233.81
2022-09-04T01:48:56.891Z,97240.03
2022-09-04T01:52:01.700Z,97246.66
2022-09-04T01:54:35.229Z,97242.56
2022-09-04T01:57:07.079Z,97245.09
2022-09-04T01:59:53.767Z,97248.06
2022-09-04T02:02:36.410Z,97248.06
2022-09-04T02:05:13.205Z,97244.47
2022-09-04T02:07:47.400Z,97246.47
2022-09-04T02:10:35.269Z,97256.91
2022-09-04T02:13:20.243Z,97258.91
2022-09-04T02:16:04.836Z,97261.00
2022-09-04T02:18:50.953Z,97258.06
2022-09-04T02:21:25.182Z,97256.78
2022-09-04T02:24:14.012Z,97253.09
2022-09-04T02:26:53.020Z,97258.81
2022-09-04T02:29:22.383Z,97257.97
2022-09-04T02:32:05.294Z,97268.91
2022-09-04T02:34:39.038Z,97258.66
2022-09-04T02:37:15.880Z,97258.78
2022-09-04T02:40:04.421Z,97266.78
2022-09-04T02:46:53.364Z,97263.53
2022-09-04T02:50:01.493Z,97266.50
2022-09-04T02:52:52.031Z,97262.28
2022-09-04T02:55:50.654Z,97270.09
2022-09-04T02:58:54.633Z,97272.59
2022-09-04T03:01:31.229Z,97275.41
2022-09-04T03:04:07.206Z,97275.94
2022-09-04T03:07:15.822Z,97280.16
2022-09-04T03:09:46.096Z,97287.19
2022-09-04T03:12:26.953Z,97276.34
2022-09-04T03:15:04.213Z,97281.50
2022-09-04T03:17:42.048Z,97282.88
2022-09-04T03:20:34.002Z,97283.84
2022-09-04T03:23:00.567Z,97280.56
2022-09-04T03:25:49.553Z,97283.09
2022-09-04T03:28:54.351Z,97282.69
2022-09-04T03:31:26.751Z,97290.38
2022-09-04T03:34:24.798Z,97281.81
2022-09-04T03:37:03.616Z,97279.59
2022-09-04T03:40:11.816Z,97277.06
2022-09-04T03:43:22.881Z,97282.63
2022-09-04T03:46:09.299Z,97282.50
2022-09-04T03:48:50.977Z,97283.88
2022-09-04T03:51:25.702Z,97291.06
2022-09-04T03:54:16.697Z,97285.25
2022-09-04T03:57:08.023Z,97292.88
2022-09-04T04:00:03.452Z,97295.28
2022-09-04T04:03:03.211Z,97300.00
2022-09-04T04:05:38.726Z,97305.97
2022-09-04T04:08:27.548Z,97307.91
2022-09-04T04:11:05.910Z,97297.09
2022-09-04T04:14:02.202Z,97304.78
2022-09-04T04:16:55.868Z,97309.09
2022-09-04T04:19:35.164Z,97309.28
2022-09-04T04:30:08.517Z,97323.59
2022-09-04T04:32:38.108Z,97323.66
2022-09-04T04:35:04.612Z,97324.09
2022-09-04T04:38:35.556Z,97330.50
2022-09-04T04:41:09.982Z,97335.72
2022-09-04T04:43:54.794Z,97332.38
2022-09-04T04:46:59.002Z,97339.56
2022-09-04T04:49:53.132Z,97337.03
2022-09-04T04:52:22.653Z,97350.50
2022-09-04T04:55:01.613Z,97352.06
2022-09-04T04:57:46.443Z,97357.69
2022-09-04T05:00:27.527Z,97357.50
2022-09-04T05:03:27.384Z,97371.22
2022-09-04T05:14:43.153Z,97370.25
2022-09-04T05:25:27.347Z,97389.59
2022-09-04T05:28:25.007Z,97384.50
2022-09-04T05:31:16.515Z,97391.19
2022-09-04T05:34:43.571Z,97387.25
2022-09-04T05:37:48.404Z,97396.28
2022-09-04T06:03:13.976Z,97408.03
2022-09-04T06:10:10.544Z,97416.84
2022-09-04T06:12:52.308Z,97421.97
2022-09-04T06:15:33.247Z,97423.81
2022-09-04T06:25:52.239Z,97429.97
2022-09-04T06:28:37.357Z,97424.00
2022-09-04T06:31:33.396Z,97432.28
2022-09-04T06:38:01.208Z,97440.00
2022-09-04T06:40:56.436Z,97439.16
2022-09-04T06:51:34.189Z,97436.00
2022-09-04T06:54:46.873Z,97449.94
2022-09-04T06:57:59.008Z,97453.34
2022-09-04T07:09:31.111Z,97453.66
2022-09-04T07:19:18.738Z,97467.69
2022-09-04T07:47:26.707Z,97486.78
2022-09-04T08:11:05.412Z,97523.19
2022-09-04T08:17:50.318Z,97533.09
2022-09-04T09:00:35.983Z,97570.91
2022-09-04T09:03:30.777Z,97558.97
2022-09-04T09:13:54.045Z,97558.09
2022-09-04T09:16:21.779Z,97559.09
2022-09-04T09:23:18.248Z,97555.81
2022-09-04T09:30:03.964Z,97555.59
2022-09-04T09:36:17.277Z,97555.91
2022-09-04T09:38:59.459Z,97559.72
2022-09-04T09:41:51.642Z,97565.44
2022-09-04T09:44:52.072Z,97559.56
2022-09-04T09:51:32.432Z,97551.63
2022-09-04T09:58:31.356Z,97541.16
2022-09-04T10:01:09.949Z,97529.38
2022-09-04T10:08:35.373Z,97529.81
2022-09-04T10:15:07.486Z,97517.66
2022-09-04T10:21:50.962Z,97519.78
2022-09-04T10:24:48.166Z,97515.22
2022-09-04T10:27:48.741Z,97519.78
2022-09-04T10:30:25.978Z,97519.06
2022-09-04T10:33:10.720Z,97516.88
2022-09-04T10:36:06.455Z,97508.03
2022-09-04T10:39:05.125Z,97512.53
2022-09-04T10:41:52.596Z,97514.91
2022-09-04T10:45:11.701Z,97506.00
2022-09-04T10:48:08.991Z,97504.06
2022-09-04T10:51:13.806Z,97504.84
2022-09-04T10:54:18.729Z,97517.50
2022-09-04T10:57:03.562Z,97512.66
2022-09-04T11:00:06.746Z,97512.19
2022-09-04T11:03:03.195Z,97503.09
2022-09-04T11:05:48.519Z,97509.28
2022-09-04T11:08:28.043Z,97510.56
2022-09-04T11:11:14.094Z,97506.75
2022-09-04T11:14:28.442Z,97497.31
2022-09-04T11:17:17.746Z,97500.72
2022-09-04T11:20:07.697Z,97496.53
2022-09-04T11:22:40.165Z,97494.53
2022-09-04T11:25:33.140Z,97497.97
2022-09-04T11:28:05.377Z,97497.28
2022-09-04T11:30:55.533Z,97493.22
2022-09-04T11:33:56.240Z,97496.44
2022-09-04T11:36:46.873Z,97488.81
2022-09-04T11:39:31.932Z,97498.34
2022-09-04T11:42:21.819Z,97495.66
2022-09-04T11:45:17.295Z,97492.28
2022-09-04T11:48:01.708Z,97490.81
2022-09-04T11:50:37.349Z,97493.72
2022-09-04T11:53:26.640Z,97497.03
2022-09-04T11:55:59.071Z,97492.03
2022-09-04T11:58:28.686Z,97498.53
2022-09-04T12:01:08.493Z,97491.28
2022-09-04T12:03:36.723Z,97494.88
2022-09-04T12:06:51.268Z,97504.16
2022-09-04T12:09:44.275Z,97492.22
2022-09-04T12:12:33.103Z,97496.06
2022-09-04T12:15:07.234Z,97486.72
2022-09-04T12:17:55.494Z,97495.47
2022-09-04T12:20:41.115Z,97490.88
2022-09-04T12:23:45.149Z,97493.19
2022-09-04T12:26:36.759Z,97489.47
2022-09-04T12:29:12.798Z,97488.78
2022-09-04T12:32:08.332Z,97484.22
2022-09-04T12:34:40.870Z,97480.25
2022-09-04T12:37:36.512Z,97474.09
2022-09-04T12:40:30.651Z,97476.53
2022-09-04T12:43:33.614Z,97478.53
2022-09-04T12:46:38.866Z,97473.19
2022-09-04T12:49:45.291Z,97469.38
2022-09-04T12:52:11.748Z,97477.88
2022-09-04T12:54:52.166Z,97471.94
2022-09-04T12:57:55.642Z,97475.69
2022-09-04T13:00:26.242Z,97466.66
2022-09-04T13:03:31.647Z,97471.44
2022-09-04T13:06:20.756Z,97457.16
2022-09-04T13:09:03.043Z,97469.31
2022-09-04T13:11:43.535Z,97470.56
2022-09-04T13:14:28.490Z,97470.03
2022-09-04T13:17:17.797Z,97461.56
2022-09-04T13:20:09.120Z,97463.84
2022-09-04T13:26:56.599Z,97477.22
2022-09-04T13:30:03.332Z,97469.94
2022-09-04T13:33:10.162Z,97465.84
2022-09-04T13:35:59.223Z,97464.19
2022-09-04T13:38:49.892Z,97473.34
2022-09-04T13:41:16.369Z,97476.75
2022-09-04T13:44:10.775Z,97470.97
2022-09-04T13:46:44.220Z,97475.69
2022-09-04T13:49:21.015Z,97473.56
2022-09-04T13:52:01.482Z,97466.97
2022-09-04T13:54:36.375Z,97465.09
2022-09-04T14:00:53.848Z,97450.88
2022-09-04T14:03:36.481Z,97451.53
2022-09-04T14:06:08.141Z,97449.41
2022-09-04T14:08:37.154Z,97450.84
2022-09-04T14:11:31.800Z,97443.66
2022-09-04T14:14:10.990Z,97453.66
2022-09-04T14:16:43.947Z,97447.13
2022-09-04T14:19:15.816Z,97460.84
2022-09-04T14:21:45.750Z,97451.13
2022-09-04T14:24:18.070Z,97463.31
2022-09-04T14:27:20.510Z,97457.53
2022-09-04T14:30:06.078Z,97458.41
2022-09-04T14:32:42.565Z,97457.88
2022-09-04T14:35:36.472Z,97469.84
2022-09-04T14:38:35.274Z,97461.63
2022-09-04T14:41:35.986Z,97465.25
2022-09-04T14:44:07.908Z,97461.31
2022-09-04T14:46:59.218Z,97459.94
2022-09-04T14:49:31.767Z,97460.88
2022-09-04T14:52:10.330Z,97455.50
2022-09-04T14:54:43.535Z,97460.78
2022-09-04T14:57:37.427Z,97463.00
2022-09-04T15:00:17.379Z,97461.66
2022-09-04T15:03:13.286Z,97465.41
2022-09-04T15:05:57.616Z,97469.47
2022-09-04T15:08:28.706Z,97473.34
2022-09-04T15:11:00.634Z,97468.50
2022-09-04T15:13:27.125Z,97472.56
2022-09-04T15:16:10.865Z,97473.00
2022-09-04T15:18:40.736Z,97476.81
2022-09-04T15:21:36.564Z,97471.53
2022-09-04T15:24:15.027Z,97477.09
2022-09-04T15:26:50.412Z,97473.94
2022-09-04T15:29:36.291Z,97474.47
2022-09-04T15:32:09.389Z,97479.41
2022-09-04T15:34:41.336Z,97483.16
2022-09-04T15:37:18.305Z,97481.47
2022-09-04T15:40:01.386Z,97477.00
2022-09-04T15:42:36.764Z,97473.91
2022-09-04T15:49:48.068Z,97480.72
2022-09-04T15:52:35.972Z,97477.63
2022-09-04T15:58:53.148Z,97486.47
2022-09-04T16:01:30.805Z,97480.09
2022-09-04T16:04:07.285Z,97485.69
2022-09-04T16:10:29.863Z,97479.69
2022-09-04T16:13:08.082Z,97482.19
2022-09-04T16:19:53.820Z,97485.03
2022-09-04T16:22:26.164Z,97492.00
2022-09-04T16:25:24.014Z,97491.69
2022-09-04T16:28:02.426Z,97486.22
2022-09-04T16:30:30.144Z,97484.69
2022-09-04T16:32:58.452Z,97485.75
2022-09-04T16:39:35.831Z,97487.00
2022-09-04T16:42:20.598Z,97480.84
2022-09-04T16:45:01.103Z,97485.25
2022-09-04T16:47:38.371Z,97493.47
2022-09-04T16:53:58.884Z,97482.13
2022-09-04T17:01:13.692Z,97488.09
2022-09-04T17:03:54.878Z,97493.69
2022-09-04T17:06:44.816Z,97491.56
2022-09-04T17:09:34.204Z,97487.06
2022-09-04T17:12:18.039Z,97485.78
2022-09-04T17:15:08.072Z,97493.97
2022-09-04T17:17:40.986Z,97492.50
2022-09-04T17:29:19.625Z,97499.13
2022-09-04T17:32:30.638Z,97501.09
2022-09-04T17:40:43.797Z,97514.78
2022-09-04T17:42:19.856Z,97522.75
2022-09-04T17:44:56.058Z,97523.28
2022-09-04T17:47:38.109Z,97525.53
2022-09-04T17:54:49.346Z,97535.47
2022-09-04T17:57:46.722Z,97546.81
2022-09-04T18:00:25.998Z,97550.81
2022-09-04T18:10:39.067Z,97571.00
2022-09-04T18:13:36.319Z,97564.81
2022-09-04T18:16:16.170Z,97566.97
2022-09-04T18:19:01.313Z,97578.72
2022-09-04T18:21:31.786Z,97579.56
2022-09-04T18:24:16.122Z,97577.75
2022-09-04T18:26:52.931Z,97582.94
2022-09-04T18:29:39.679Z,97590.78
2022-09-04T18:37:20.596Z,97596.09
2022-09-04T18:37:21.336Z,97590.59
2022-09-04T18:38:36.440Z,97596.72
2022-09-04T18:47:44.746Z,97600.63
2022-09-04T18:49:35.836Z,97606.25
2022-09-04T18:50:38.083Z,97599.63
2022-09-04T18:50:48.581Z,97606.47
2022-09-04T18:53:03.922Z,97602.94
2022-09-04T18:55:57.663Z,97607.38
2022-09-04T18:58:51.378Z,97610.97
2022-09-04T19:01:26.741Z,97606.53
2022-09-04T19:04:19.349Z,97613.31
2022-09-04T19:07:06.739Z,97606.72
2022-09-04T19:10:02.140Z,97604.22
2022-09-04T19:12:52.255Z,97610.03
2022-09-04T19:15:45.076Z,97618.22
2022-09-04T19:18:22.505Z,97616.03
2022-09-04T19:21:21.187Z,97616.72
2022-09-04T19:24:05.276Z,97607.88
2022-09-04T19:26:55.503Z,97615.94
2022-09-04T19:29:26.124Z,97619.44
2022-09-04T19:31:59.690Z,97617.50
2022-09-04T19:34:39.141Z,97619.38
2022-09-04T19:37:39.870Z,97616.25
2022-09-04T19:46:01.427Z,97617.81
2022-09-04T19:46:04.178Z,97622.25
2022-09-04T19:46:27.735Z,97622.19
2022-09-04T19:52:36.796Z,97619.22
2022-09-04T19:53:33.194Z,97622.75
2022-09-04T19:55:25.117Z,97612.75
2022-09-04T19:58:16.319Z,97619.66
2022-09-04T20:01:02.655Z,97618.50
2022-09-04T20:04:10.649Z,97613.88
2022-09-04T20:06:52.154Z,97604.81
2022-09-04T20:09:33.483Z,97603.06
2022-09-04T20:12:17.430Z,97612.47
2022-09-04T20:14:54.985Z,97609.94
2022-09-04T20:18:04.211Z,97613.13
2022-09-04T20:21:21.195Z,97606.09
2022-09-04T20:24:01.769Z,97604.53
2022-09-04T20:26:42.209Z,97604.78
2022-09-04T20:29:23.076Z,97606.22
2022-09-04T20:35:40.433Z,97609.59
2022-09-04T20:38:26.091Z,97606.47
2022-09-04T20:41:00.747Z,97614.56
2022-09-04T21:11:41.545Z,97616.97
2022-09-04T21:14:16.993Z,97617.69
2022-09-04T21:16:55.392Z,97622.97
2022-09-04T21:19:53.953Z,97622.97
2022-09-04T23:10:56.967Z,97671.34
2022-09-04T23:13:46.783Z,97678.31
2022-09-04T23:13:58.088Z,97676.63
2022-09-04T23:16:44.887Z,97674.53
2022-09-04T23:26:30.968Z,97674.31
2022-09-04T23:26:42.365Z,97678.88
2022-09-04T23:26:52.825Z,97676.00
2022-09-04T23:29:07.049Z,97672.84
2022-09-04T23:32:06.893Z,97671.19
2022-09-04T23:35:15.846Z,97661.13
2022-09-04T23:38:03.586Z,97666.50
2022-09-04T23:40:31.871Z,97667.66
2022-09-04T23:43:23.059Z,97669.06
2022-09-04T23:46:02.384Z,97660.19
2022-09-04T23:48:35.054Z,97662.91
2022-09-04T23:51:19.619Z,97654.56
2022-09-04T23:54:25.705Z,97655.84
2022-09-04T23:57:26.489Z,97661.13
2022-09-04T23:59:56.585Z,97656.28
